sensor_id;sensor_type;location;lat;lon;timestamp;P1;durP1;ratioP1;P2;durP2;ratioP2
4272;SDS011;63887;53.656;9.810;2022-10-16T00:00:44;22.90;;;13.07;;
4272;SDS011;63887;53.656;9.810;2022-10-16T00:03:12;17.43;;;12.37;;
4272;SDS011;63887;53.656;9.810;2022-10-16T00:05:39;14.90;;;13.10;;
4272;SDS011;63887;53.656;9.810;2022-10-16T00:08:07;16.50;;;13.30;;
4272;SDS011;63887;53.656;9.810;2022-10-16T00:10:34;13.77;;;11.80;;
4272;SDS011;63887;53.656;9.810;2022-10-16T00:13:00;16.20;;;14.50;;
4272;SDS011;63887;53.656;9.810;2022-10-16T00:15:27;21.17;;;12.93;;
4272;SDS011;63887;53.656;9.810;2022-10-16T00:17:54;25.77;;;11.73;;
4272;SDS011;63887;53.656;9.810;2022-10-16T00:20:21;17.00;;;13.60;;
4272;SDS011;63887;53.656;9.810;2022-10-16T00:22:47;17.07;;;14.53;;
4272;SDS011;63887;53.656;9.810;2022-10-16T00:25:14;19.60;;;13.77;;
4272;SDS011;63887;53.656;9.810;2022-10-16T00:27:40;16.33;;;11.60;;
4272;SDS011;63887;53.656;9.810;2022-10-16T00:30:07;13.33;;;11.90;;
4272;SDS011;63887;53.656;9.810;2022-10-16T00:32:34;24.37;;;13.53;;
4272;SDS011;63887;53.656;9.810;2022-10-16T00:35:02;12.47;;;11.23;;
4272;SDS011;63887;53.656;9.810;2022-10-16T00:37:29;12.47;;;11.43;;
4272;SDS011;63887;53.656;9.810;2022-10-16T00:39:55;19.10;;;12.40;;
4272;SDS011;63887;53.656;9.810;2022-10-16T00:42:22;10.97;;;9.87;;
4272;SDS011;63887;53.656;9.810;2022-10-16T00:44:49;15.20;;;10.30;;
4272;SDS011;63887;53.656;9.810;2022-10-16T00:47:19;12.23;;;10.83;;
4272;SDS011;63887;53.656;9.810;2022-10-16T00:49:51;16.23;;;10.30;;
4272;SDS011;63887;53.656;9.810;2022-10-16T00:52:23;11.93;;;10.10;;
4272;SDS011;63887;53.656;9.810;2022-10-16T00:54:50;9.27;;;8.50;;
4272;SDS011;63887;53.656;9.810;2022-10-16T00:57:19;10.03;;;9.20;;
4272;SDS011;63887;53.656;9.810;2022-10-16T00:59:46;10.50;;;8.53;;
4272;SDS011;63887;53.656;9.810;2022-10-16T01:02:13;11.47;;;8.67;;
4272;SDS011;63887;53.656;9.810;2022-10-16T01:04:42;8.23;;;7.50;;
4272;SDS011;63887;53.656;9.810;2022-10-16T01:07:12;8.30;;;7.70;;
4272;SDS011;63887;53.656;9.810;2022-10-16T01:09:53;7.67;;;7.00;;
4272;SDS011;63887;53.656;9.810;2022-10-16T01:12:30;16.53;;;8.57;;
4272;SDS011;63887;53.656;9.810;2022-10-16T01:15:04;10.23;;;8.47;;
4272;SDS011;63887;53.656;9.810;2022-10-16T01:17:37;13.13;;;9.20;;
4272;SDS011;63887;53.656;9.810;2022-10-16T01:20:10;7.77;;;7.37;;
4272;SDS011;63887;53.656;9.810;2022-10-16T01:22:50;8.20;;;7.67;;
4272;SDS011;63887;53.656;9.810;2022-10-16T01:25:38;8.57;;;7.77;;
4272;SDS011;63887;53.656;9.810;2022-10-16T01:28:16;13.00;;;7.77;;
4272;SDS011;63887;53.656;9.810;2022-10-16T01:30:47;11.07;;;8.50;;
4272;SDS011;63887;53.656;9.810;2022-10-16T01:33:18;9.03;;;8.53;;
4272;SDS011;63887;53.656;9.810;2022-10-16T01:35:47;7.60;;;7.30;;
4272;SDS011;63887;53.656;9.810;2022-10-16T01:38:19;8.10;;;7.27;;
4272;SDS011;63887;53.656;9.810;2022-10-16T01:40:50;8.23;;;7.50;;
4272;SDS011;63887;53.656;9.810;2022-10-16T01:43:23;7.90;;;7.27;;
4272;SDS011;63887;53.656;9.810;2022-10-16T01:45:53;7.43;;;6.97;;
4272;SDS011;63887;53.656;9.810;2022-10-16T01:48:21;7.97;;;7.27;;
4272;SDS011;63887;53.656;9.810;2022-10-16T01:50:50;7.83;;;7.10;;
4272;SDS011;63887;53.656;9.810;2022-10-16T01:53:20;7.27;;;6.87;;
4272;SDS011;63887;53.656;9.810;2022-10-16T01:55:49;7.80;;;7.30;;
4272;SDS011;63887;53.656;9.810;2022-10-16T01:58:18;11.03;;;8.67;;
4272;SDS011;63887;53.656;9.810;2022-10-16T02:00:46;13.20;;;7.50;;
4272;SDS011;63887;53.656;9.810;2022-10-16T02:03:14;16.07;;;7.27;;
4272;SDS011;63887;53.656;9.810;2022-10-16T02:05:45;7.80;;;7.30;;
4272;SDS011;63887;53.656;9.810;2022-10-16T02:08:12;9.80;;;7.50;;
4272;SDS011;63887;53.656;9.810;2022-10-16T02:10:39;9.20;;;8.30;;
4272;SDS011;63887;53.656;9.810;2022-10-16T02:13:06;7.50;;;6.83;;
4272;SDS011;63887;53.656;9.810;2022-10-16T02:15:36;16.13;;;9.50;;
4272;SDS011;63887;53.656;9.810;2022-10-16T02:18:04;9.87;;;8.03;;
4272;SDS011;63887;53.656;9.810;2022-10-16T02:20:33;6.90;;;6.27;;
4272;SDS011;63887;53.656;9.810;2022-10-16T02:23:04;8.80;;;7.03;;
4272;SDS011;63887;53.656;9.810;2022-10-16T02:25:36;10.10;;;6.63;;
4272;SDS011;63887;53.656;9.810;2022-10-16T02:28:06;6.70;;;6.40;;
4272;SDS011;63887;53.656;9.810;2022-10-16T02:30:38;12.90;;;6.67;;
4272;SDS011;63887;53.656;9.810;2022-10-16T02:33:10;18.53;;;7.30;;
4272;SDS011;63887;53.656;9.810;2022-10-16T02:35:39;9.03;;;7.70;;
4272;SDS011;63887;53.656;9.810;2022-10-16T02:38:07;7.10;;;6.53;;
4272;SDS011;63887;53.656;9.810;2022-10-16T02:40:35;8.20;;;7.07;;
4272;SDS011;63887;53.656;9.810;2022-10-16T02:43:03;10.70;;;7.73;;
4272;SDS011;63887;53.656;9.810;2022-10-16T02:45:30;10.00;;;5.63;;
4272;SDS011;63887;53.656;9.810;2022-10-16T02:47:58;8.70;;;6.67;;
4272;SDS011;63887;53.656;9.810;2022-10-16T02:50:26;7.53;;;7.20;;
4272;SDS011;63887;53.656;9.810;2022-10-16T02:52:53;6.63;;;6.30;;
4272;SDS011;63887;53.656;9.810;2022-10-16T02:55:19;7.50;;;6.73;;
4272;SDS011;63887;53.656;9.810;2022-10-16T02:57:46;8.57;;;7.30;;
4272;SDS011;63887;53.656;9.810;2022-10-16T03:00:13;7.50;;;6.30;;
4272;SDS011;63887;53.656;9.810;2022-10-16T03:02:41;6.93;;;6.47;;
4272;SDS011;63887;53.656;9.810;2022-10-16T03:05:09;5.90;;;5.70;;
4272;SDS011;63887;53.656;9.810;2022-10-16T03:07:37;6.53;;;6.03;;
4272;SDS011;63887;53.656;9.810;2022-10-16T03:10:04;6.30;;;5.90;;
4272;SDS011;63887;53.656;9.810;2022-10-16T03:12:31;13.10;;;6.37;;
4272;SDS011;63887;53.656;9.810;2022-10-16T03:14:57;7.27;;;6.70;;
4272;SDS011;63887;53.656;9.810;2022-10-16T03:17:24;6.67;;;6.07;;
4272;SDS011;63887;53.656;9.810;2022-10-16T03:19:51;8.10;;;6.07;;
4272;SDS011;63887;53.656;9.810;2022-10-16T03:22:17;6.63;;;6.23;;
4272;SDS011;63887;53.656;9.810;2022-10-16T03:24:45;6.60;;;6.23;;
4272;SDS011;63887;53.656;9.810;2022-10-16T03:27:12;7.30;;;6.70;;
4272;SDS011;63887;53.656;9.810;2022-10-16T03:29:38;7.87;;;6.80;;
4272;SDS011;63887;53.656;9.810;2022-10-16T03:32:04;7.73;;;6.63;;
4272;SDS011;63887;53.656;9.810;2022-10-16T03:34:31;6.70;;;6.40;;
4272;SDS011;63887;53.656;9.810;2022-10-16T03:36:57;9.00;;;7.00;;
4272;SDS011;63887;53.656;9.810;2022-10-16T03:39:24;13.20;;;6.67;;
4272;SDS011;63887;53.656;9.810;2022-10-16T03:41:52;9.17;;;6.80;;
4272;SDS011;63887;53.656;9.810;2022-10-16T03:44:18;7.50;;;6.60;;
4272;SDS011;63887;53.656;9.810;2022-10-16T03:46:44;7.63;;;7.07;;
4272;SDS011;63887;53.656;9.810;2022-10-16T03:49:11;6.40;;;6.10;;
4272;SDS011;63887;53.656;9.810;2022-10-16T03:51:37;8.50;;;7.17;;
4272;SDS011;63887;53.656;9.810;2022-10-16T03:54:04;7.37;;;6.87;;
4272;SDS011;63887;53.656;9.810;2022-10-16T03:56:30;7.10;;;6.50;;
4272;SDS011;63887;53.656;9.810;2022-10-16T03:58:58;8.13;;;6.40;;
4272;SDS011;63887;53.656;9.810;2022-10-16T04:01:24;7.50;;;6.40;;
4272;SDS011;63887;53.656;9.810;2022-10-16T04:03:51;7.83;;;7.10;;
4272;SDS011;63887;53.656;9.810;2022-10-16T04:06:17;10.10;;;7.17;;
4272;SDS011;63887;53.656;9.810;2022-10-16T04:08:43;6.67;;;6.47;;
4272;SDS011;63887;53.656;9.810;2022-10-16T04:11:10;6.73;;;6.33;;
4272;SDS011;63887;53.656;9.810;2022-10-16T04:13:37;8.13;;;6.83;;
4272;SDS011;63887;53.656;9.810;2022-10-16T04:16:05;8.83;;;6.67;;
4272;SDS011;63887;53.656;9.810;2022-10-16T04:18:31;9.77;;;7.60;;
4272;SDS011;63887;53.656;9.810;2022-10-16T04:21:01;7.73;;;7.00;;
4272;SDS011;63887;53.656;9.810;2022-10-16T04:23:29;7.93;;;7.30;;
4272;SDS011;63887;53.656;9.810;2022-10-16T04:25:55;7.10;;;6.80;;
4272;SDS011;63887;53.656;9.810;2022-10-16T04:28:22;8.90;;;6.50;;
4272;SDS011;63887;53.656;9.810;2022-10-16T04:30:48;8.87;;;7.10;;
4272;SDS011;63887;53.656;9.810;2022-10-16T04:33:16;6.40;;;6.20;;
4272;SDS011;63887;53.656;9.810;2022-10-16T04:35:42;6.90;;;6.50;;
4272;SDS011;63887;53.656;9.810;2022-10-16T04:38:09;11.87;;;7.10;;
4272;SDS011;63887;53.656;9.810;2022-10-16T04:40:35;9.17;;;6.70;;
4272;SDS011;63887;53.656;9.810;2022-10-16T04:43:02;7.10;;;6.70;;
4272;SDS011;63887;53.656;9.810;2022-10-16T04:45:28;6.90;;;6.47;;
4272;SDS011;63887;53.656;9.810;2022-10-16T04:47:56;7.20;;;6.60;;
4272;SDS011;63887;53.656;9.810;2022-10-16T04:50:24;8.10;;;7.47;;
4272;SDS011;63887;53.656;9.810;2022-10-16T04:52:51;6.70;;;6.60;;
4272;SDS011;63887;53.656;9.810;2022-10-16T04:55:17;6.83;;;6.63;;
4272;SDS011;63887;53.656;9.810;2022-10-16T04:57:44;7.93;;;7.30;;
4272;SDS011;63887;53.656;9.810;2022-10-16T05:00:10;7.20;;;6.70;;
4272;SDS011;63887;53.656;9.810;2022-10-16T05:02:37;9.33;;;6.67;;
4272;SDS011;63887;53.656;9.810;2022-10-16T05:05:04;13.53;;;7.00;;
4272;SDS011;63887;53.656;9.810;2022-10-16T05:07:33;6.50;;;6.20;;
4272;SDS011;63887;53.656;9.810;2022-10-16T05:09:59;9.37;;;6.40;;
4272;SDS011;63887;53.656;9.810;2022-10-16T05:12:26;7.83;;;7.10;;
4272;SDS011;63887;53.656;9.810;2022-10-16T05:14:52;6.97;;;6.67;;
4272;SDS011;63887;53.656;9.810;2022-10-16T05:17:23;11.70;;;7.07;;
4272;SDS011;63887;53.656;9.810;2022-10-16T05:19:49;11.53;;;6.93;;
4272;SDS011;63887;53.656;9.810;2022-10-16T05:22:16;7.47;;;6.60;;
4272;SDS011;63887;53.656;9.810;2022-10-16T05:24:44;8.00;;;6.63;;
4272;SDS011;63887;53.656;9.810;2022-10-16T05:27:10;8.37;;;7.60;;
4272;SDS011;63887;53.656;9.810;2022-10-16T05:29:43;8.73;;;7.30;;
4272;SDS011;63887;53.656;9.810;2022-10-16T05:32:10;9.50;;;7.93;;
4272;SDS011;63887;53.656;9.810;2022-10-16T05:34:36;13.10;;;7.73;;
4272;SDS011;63887;53.656;9.810;2022-10-16T05:37:03;12.40;;;7.53;;
4272;SDS011;63887;53.656;9.810;2022-10-16T05:39:29;19.63;;;8.30;;
4272;SDS011;63887;53.656;9.810;2022-10-16T05:41:57;9.00;;;8.50;;
4272;SDS011;63887;53.656;9.810;2022-10-16T05:44:23;11.50;;;8.50;;
4272;SDS011;63887;53.656;9.810;2022-10-16T05:46:50;9.70;;;8.73;;
4272;SDS011;63887;53.656;9.810;2022-10-16T05:49:16;9.10;;;8.50;;
4272;SDS011;63887;53.656;9.810;2022-10-16T05:51:42;11.47;;;9.43;;
4272;SDS011;63887;53.656;9.810;2022-10-16T05:54:09;11.70;;;9.57;;
4272;SDS011;63887;53.656;9.810;2022-10-16T05:56:35;19.03;;;8.30;;
4272;SDS011;63887;53.656;9.810;2022-10-16T05:59:04;15.83;;;10.33;;
4272;SDS011;63887;53.656;9.810;2022-10-16T06:01:31;10.23;;;9.33;;
4272;SDS011;63887;53.656;9.810;2022-10-16T06:03:58;14.60;;;9.30;;
4272;SDS011;63887;53.656;9.810;2022-10-16T06:06:25;11.20;;;8.33;;
4272;SDS011;63887;53.656;9.810;2022-10-16T06:08:53;10.03;;;9.03;;
4272;SDS011;63887;53.656;9.810;2022-10-16T06:11:21;10.20;;;9.13;;
4272;SDS011;63887;53.656;9.810;2022-10-16T06:13:49;10.17;;;9.37;;
4272;SDS011;63887;53.656;9.810;2022-10-16T06:16:17;18.60;;;9.30;;
4272;SDS011;63887;53.656;9.810;2022-10-16T06:18:44;9.33;;;8.63;;
4272;SDS011;63887;53.656;9.810;2022-10-16T06:21:12;10.33;;;8.80;;
4272;SDS011;63887;53.656;9.810;2022-10-16T06:23:40;10.60;;;9.30;;
4272;SDS011;63887;53.656;9.810;2022-10-16T06:26:06;9.53;;;8.00;;
4272;SDS011;63887;53.656;9.810;2022-10-16T06:28:33;9.47;;;8.73;;
4272;SDS011;63887;53.656;9.810;2022-10-16T06:31:00;12.83;;;9.53;;
4272;SDS011;63887;53.656;9.810;2022-10-16T06:33:28;13.93;;;9.90;;
4272;SDS011;63887;53.656;9.810;2022-10-16T06:35:59;14.27;;;9.27;;
4272;SDS011;63887;53.656;9.810;2022-10-16T06:38:26;9.60;;;8.60;;
4272;SDS011;63887;53.656;9.810;2022-10-16T06:40:53;10.47;;;9.30;;
4272;SDS011;63887;53.656;9.810;2022-10-16T06:43:19;10.93;;;9.90;;
4272;SDS011;63887;53.656;9.810;2022-10-16T06:45:49;10.10;;;9.13;;
4272;SDS011;63887;53.656;9.810;2022-10-16T06:48:17;13.93;;;8.70;;
4272;SDS011;63887;53.656;9.810;2022-10-16T06:50:44;10.13;;;8.67;;
4272;SDS011;63887;53.656;9.810;2022-10-16T06:53:21;11.03;;;8.90;;
4272;SDS011;63887;53.656;9.810;2022-10-16T06:55:47;9.30;;;8.70;;
4272;SDS011;63887;53.656;9.810;2022-10-16T06:58:14;9.20;;;8.00;;
4272;SDS011;63887;53.656;9.810;2022-10-16T07:00:40;10.40;;;9.67;;
4272;SDS011;63887;53.656;9.810;2022-10-16T07:03:07;10.50;;;9.53;;
4272;SDS011;63887;53.656;9.810;2022-10-16T07:05:36;9.03;;;8.63;;
4272;SDS011;63887;53.656;9.810;2022-10-16T07:08:05;10.10;;;9.47;;
4272;SDS011;63887;53.656;9.810;2022-10-16T07:10:31;10.60;;;9.70;;
4272;SDS011;63887;53.656;9.810;2022-10-16T07:12:57;10.87;;;9.87;;
4272;SDS011;63887;53.656;9.810;2022-10-16T07:15:24;12.73;;;10.73;;
4272;SDS011;63887;53.656;9.810;2022-10-16T07:17:51;9.60;;;9.00;;
4272;SDS011;63887;53.656;9.810;2022-10-16T07:20:18;9.43;;;8.83;;
4272;SDS011;63887;53.656;9.810;2022-10-16T07:22:44;12.00;;;9.63;;
4272;SDS011;63887;53.656;9.810;2022-10-16T07:25:12;9.50;;;8.70;;
4272;SDS011;63887;53.656;9.810;2022-10-16T07:27:38;12.93;;;8.73;;
4272;SDS011;63887;53.656;9.810;2022-10-16T07:30:05;14.97;;;8.97;;
4272;SDS011;63887;53.656;9.810;2022-10-16T07:32:32;12.10;;;9.60;;
4272;SDS011;63887;53.656;9.810;2022-10-16T07:34:59;9.57;;;8.97;;
4272;SDS011;63887;53.656;9.810;2022-10-16T07:37:25;11.57;;;10.43;;
4272;SDS011;63887;53.656;9.810;2022-10-16T07:39:52;17.03;;;9.70;;
4272;SDS011;63887;53.656;9.810;2022-10-16T07:42:20;13.03;;;10.27;;
4272;SDS011;63887;53.656;9.810;2022-10-16T07:44:46;11.23;;;10.13;;
4272;SDS011;63887;53.656;9.810;2022-10-16T07:47:12;11.03;;;10.07;;
4272;SDS011;63887;53.656;9.810;2022-10-16T07:49:39;10.30;;;9.60;;
4272;SDS011;63887;53.656;9.810;2022-10-16T07:52:05;9.83;;;9.27;;
4272;SDS011;63887;53.656;9.810;2022-10-16T07:54:32;10.70;;;9.73;;
4272;SDS011;63887;53.656;9.810;2022-10-16T07:56:58;13.23;;;9.47;;
4272;SDS011;63887;53.656;9.810;2022-10-16T07:59:26;13.20;;;11.83;;
4272;SDS011;63887;53.656;9.810;2022-10-16T08:01:52;12.07;;;10.70;;
4272;SDS011;63887;53.656;9.810;2022-10-16T08:04:18;12.80;;;10.20;;
4272;SDS011;63887;53.656;9.810;2022-10-16T08:06:45;13.40;;;9.20;;
4272;SDS011;63887;53.656;9.810;2022-10-16T08:09:11;10.47;;;9.63;;
4272;SDS011;63887;53.656;9.810;2022-10-16T08:11:38;10.43;;;9.43;;
4272;SDS011;63887;53.656;9.810;2022-10-16T08:14:04;9.70;;;9.00;;
4272;SDS011;63887;53.656;9.810;2022-10-16T08:16:32;9.37;;;8.70;;
4272;SDS011;63887;53.656;9.810;2022-10-16T08:18:58;19.80;;;9.10;;
4272;SDS011;63887;53.656;9.810;2022-10-16T08:21:25;10.40;;;9.17;;
4272;SDS011;63887;53.656;9.810;2022-10-16T08:23:52;12.80;;;9.63;;
4272;SDS011;63887;53.656;9.810;2022-10-16T08:26:19;11.50;;;10.40;;
4272;SDS011;63887;53.656;9.810;2022-10-16T08:28:46;9.03;;;8.23;;
4272;SDS011;63887;53.656;9.810;2022-10-16T08:31:15;20.17;;;10.00;;
4272;SDS011;63887;53.656;9.810;2022-10-16T08:33:43;11.27;;;10.17;;
4272;SDS011;63887;53.656;9.810;2022-10-16T08:36:11;13.10;;;8.97;;
4272;SDS011;63887;53.656;9.810;2022-10-16T08:38:39;12.77;;;8.50;;
4272;SDS011;63887;53.656;9.810;2022-10-16T08:41:14;12.40;;;10.83;;
4272;SDS011;63887;53.656;9.810;2022-10-16T08:44:00;13.30;;;8.40;;
4272;SDS011;63887;53.656;9.810;2022-10-16T08:46:46;8.93;;;8.23;;
4272;SDS011;63887;53.656;9.810;2022-10-16T08:49:22;10.27;;;9.40;;
4272;SDS011;63887;53.656;9.810;2022-10-16T08:51:49;9.43;;;8.60;;
4272;SDS011;63887;53.656;9.810;2022-10-16T08:54:23;10.33;;;8.73;;
4272;SDS011;63887;53.656;9.810;2022-10-16T08:56:55;12.70;;;8.20;;
4272;SDS011;63887;53.656;9.810;2022-10-16T08:59:22;12.83;;;9.50;;
4272;SDS011;63887;53.656;9.810;2022-10-16T09:01:49;8.77;;;8.40;;
4272;SDS011;63887;53.656;9.810;2022-10-16T09:04:34;8.20;;;7.80;;
4272;SDS011;63887;53.656;9.810;2022-10-16T09:07:13;13.37;;;8.03;;
4272;SDS011;63887;53.656;9.810;2022-10-16T09:09:54;8.53;;;7.93;;
4272;SDS011;63887;53.656;9.810;2022-10-16T09:12:31;12.13;;;8.43;;
4272;SDS011;63887;53.656;9.810;2022-10-16T09:15:08;9.13;;;8.43;;
4272;SDS011;63887;53.656;9.810;2022-10-16T09:17:45;9.57;;;8.60;;
4272;SDS011;63887;53.656;9.810;2022-10-16T09:20:31;9.40;;;8.40;;
4272;SDS011;63887;53.656;9.810;2022-10-16T09:23:10;8.77;;;8.27;;
4272;SDS011;63887;53.656;9.810;2022-10-16T09:25:42;10.07;;;7.67;;
4272;SDS011;63887;53.656;9.810;2022-10-16T09:28:10;12.40;;;7.80;;
4272;SDS011;63887;53.656;9.810;2022-10-16T09:30:37;8.23;;;7.53;;
4272;SDS011;63887;53.656;9.810;2022-10-16T09:33:05;9.40;;;7.50;;
4272;SDS011;63887;53.656;9.810;2022-10-16T09:35:36;12.00;;;7.87;;
4272;SDS011;63887;53.656;9.810;2022-10-16T09:38:05;7.80;;;6.90;;
4272;SDS011;63887;53.656;9.810;2022-10-16T09:40:33;7.50;;;7.10;;
4272;SDS011;63887;53.656;9.810;2022-10-16T09:43:03;7.50;;;7.20;;
4272;SDS011;63887;53.656;9.810;2022-10-16T09:45:42;7.87;;;7.30;;
4272;SDS011;63887;53.656;9.810;2022-10-16T09:48:10;7.97;;;7.33;;
4272;SDS011;63887;53.656;9.810;2022-10-16T09:50:39;7.90;;;7.17;;
4272;SDS011;63887;53.656;9.810;2022-10-16T09:53:08;6.80;;;6.27;;
4272;SDS011;63887;53.656;9.810;2022-10-16T09:55:47;8.30;;;7.60;;
4272;SDS011;63887;53.656;9.810;2022-10-16T09:58:14;9.50;;;8.60;;
4272;SDS011;63887;53.656;9.810;2022-10-16T10:00:41;9.60;;;7.00;;
4272;SDS011;63887;53.656;9.810;2022-10-16T10:03:15;8.03;;;7.37;;
4272;SDS011;63887;53.656;9.810;2022-10-16T10:05:58;9.10;;;6.30;;
4272;SDS011;63887;53.656;9.810;2022-10-16T10:08:25;6.93;;;6.23;;
4272;SDS011;63887;53.656;9.810;2022-10-16T10:10:51;7.17;;;6.47;;
4272;SDS011;63887;53.656;9.810;2022-10-16T10:13:21;10.70;;;6.57;;
4272;SDS011;63887;53.656;9.810;2022-10-16T10:15:50;7.37;;;6.60;;
4272;SDS011;63887;53.656;9.810;2022-10-16T10:18:18;9.07;;;7.13;;
4272;SDS011;63887;53.656;9.810;2022-10-16T10:20:56;7.13;;;6.13;;
4272;SDS011;63887;53.656;9.810;2022-10-16T10:23:25;9.80;;;7.47;;
4272;SDS011;63887;53.656;9.810;2022-10-16T10:25:55;12.63;;;6.90;;
4272;SDS011;63887;53.656;9.810;2022-10-16T10:31:20;19.17;;;6.90;;
4272;SDS011;63887;53.656;9.810;2022-10-16T10:33:52;8.37;;;7.53;;
4272;SDS011;63887;53.656;9.810;2022-10-16T10:36:27;7.33;;;6.50;;
4272;SDS011;63887;53.656;9.810;2022-10-16T10:38:58;9.63;;;7.23;;
4272;SDS011;63887;53.656;9.810;2022-10-16T10:44:50;8.17;;;6.70;;
4272;SDS011;63887;53.656;9.810;2022-10-16T10:47:24;7.80;;;7.17;;
4272;SDS011;63887;53.656;9.810;2022-10-16T10:50:02;7.73;;;6.97;;
4272;SDS011;63887;53.656;9.810;2022-10-16T10:52:41;6.30;;;5.80;;
4272;SDS011;63887;53.656;9.810;2022-10-16T10:55:16;9.93;;;7.03;;
4272;SDS011;63887;53.656;9.810;2022-10-16T10:58:04;7.50;;;6.60;;
4272;SDS011;63887;53.656;9.810;2022-10-16T11:00:43;6.53;;;6.13;;
4272;SDS011;63887;53.656;9.810;2022-10-16T11:03:25;8.00;;;7.40;;
4272;SDS011;63887;53.656;9.810;2022-10-16T11:06:00;7.73;;;6.90;;
4272;SDS011;63887;53.656;9.810;2022-10-16T11:08:34;7.60;;;6.87;;
4272;SDS011;63887;53.656;9.810;2022-10-16T11:11:02;7.57;;;6.97;;
4272;SDS011;63887;53.656;9.810;2022-10-16T11:13:34;8.13;;;7.73;;
4272;SDS011;63887;53.656;9.810;2022-10-16T11:16:08;9.53;;;6.90;;
4272;SDS011;63887;53.656;9.810;2022-10-16T11:18:41;12.93;;;8.17;;
4272;SDS011;63887;53.656;9.810;2022-10-16T11:21:16;6.50;;;6.00;;
4272;SDS011;63887;53.656;9.810;2022-10-16T11:23:48;6.33;;;5.90;;
4272;SDS011;63887;53.656;9.810;2022-10-16T11:26:21;7.03;;;6.50;;
4272;SDS011;63887;53.656;9.810;2022-10-16T11:28:53;9.20;;;6.40;;
4272;SDS011;63887;53.656;9.810;2022-10-16T11:31:23;8.87;;;8.07;;
4272;SDS011;63887;53.656;9.810;2022-10-16T11:33:59;6.73;;;6.17;;
4272;SDS011;63887;53.656;9.810;2022-10-16T11:36:33;6.13;;;5.80;;
4272;SDS011;63887;53.656;9.810;2022-10-16T11:39:08;7.10;;;5.60;;
4272;SDS011;63887;53.656;9.810;2022-10-16T11:41:44;6.60;;;6.10;;
4272;SDS011;63887;53.656;9.810;2022-10-16T11:44:19;6.77;;;6.23;;
4272;SDS011;63887;53.656;9.810;2022-10-16T11:47:00;11.50;;;5.90;;
4272;SDS011;63887;53.656;9.810;2022-10-16T11:49:33;13.60;;;6.63;;
4272;SDS011;63887;53.656;9.810;2022-10-16T11:52:03;6.50;;;6.07;;
4272;SDS011;63887;53.656;9.810;2022-10-16T11:54:39;7.27;;;6.30;;
4272;SDS011;63887;53.656;9.810;2022-10-16T11:57:11;14.00;;;7.40;;
4272;SDS011;63887;53.656;9.810;2022-10-16T11:59:42;6.23;;;5.80;;
4272;SDS011;63887;53.656;9.810;2022-10-16T12:02:20;6.87;;;5.73;;
4272;SDS011;63887;53.656;9.810;2022-10-16T12:04:56;8.00;;;5.90;;
4272;SDS011;63887;53.656;9.810;2022-10-16T12:07:32;6.77;;;6.30;;
4272;SDS011;63887;53.656;9.810;2022-10-16T12:10:11;5.30;;;5.20;;
4272;SDS011;63887;53.656;9.810;2022-10-16T12:12:46;6.80;;;6.37;;
4272;SDS011;63887;53.656;9.810;2022-10-16T12:15:20;6.43;;;5.83;;
4272;SDS011;63887;53.656;9.810;2022-10-16T12:17:49;7.07;;;6.57;;
4272;SDS011;63887;53.656;9.810;2022-10-16T12:20:21;6.50;;;6.00;;
4272;SDS011;63887;53.656;9.810;2022-10-16T12:22:52;7.23;;;6.63;;
4272;SDS011;63887;53.656;9.810;2022-10-16T12:25:23;5.90;;;5.50;;
4272;SDS011;63887;53.656;9.810;2022-10-16T12:27:57;9.40;;;6.63;;
4272;SDS011;63887;53.656;9.810;2022-10-16T12:30:26;6.63;;;6.10;;
4272;SDS011;63887;53.656;9.810;2022-10-16T12:32:55;6.70;;;6.23;;
4272;SDS011;63887;53.656;9.810;2022-10-16T12:35:24;7.47;;;6.87;;
4272;SDS011;63887;53.656;9.810;2022-10-16T12:37:53;6.90;;;6.30;;
4272;SDS011;63887;53.656;9.810;2022-10-16T12:40:32;6.53;;;6.10;;
4272;SDS011;63887;53.656;9.810;2022-10-16T12:43:11;6.83;;;6.00;;
4272;SDS011;63887;53.656;9.810;2022-10-16T12:45:39;7.47;;;6.97;;
4272;SDS011;63887;53.656;9.810;2022-10-16T12:48:18;12.70;;;10.23;;
4272;SDS011;63887;53.656;9.810;2022-10-16T12:50:46;10.60;;;7.57;;
4272;SDS011;63887;53.656;9.810;2022-10-16T12:53:20;6.90;;;6.40;;
4272;SDS011;63887;53.656;9.810;2022-10-16T12:56:01;10.10;;;6.30;;
4272;SDS011;63887;53.656;9.810;2022-10-16T13:01:31;13.93;;;6.60;;
4272;SDS011;63887;53.656;9.810;2022-10-16T13:07:17;7.57;;;6.97;;
4272;SDS011;63887;53.656;9.810;2022-10-16T13:09:56;9.47;;;6.93;;
4272;SDS011;63887;53.656;9.810;2022-10-16T13:12:41;7.77;;;6.57;;
4272;SDS011;63887;53.656;9.810;2022-10-16T13:15:26;17.90;;;6.57;;
4272;SDS011;63887;53.656;9.810;2022-10-16T13:18:02;10.90;;;6.47;;
4272;SDS011;63887;53.656;9.810;2022-10-16T13:20:35;7.03;;;5.77;;
4272;SDS011;63887;53.656;9.810;2022-10-16T13:23:08;9.83;;;6.80;;
4272;SDS011;63887;53.656;9.810;2022-10-16T13:25:44;8.27;;;6.17;;
4272;SDS011;63887;53.656;9.810;2022-10-16T13:28:22;11.83;;;5.63;;
4272;SDS011;63887;53.656;9.810;2022-10-16T13:30:54;6.23;;;5.47;;
4272;SDS011;63887;53.656;9.810;2022-10-16T13:33:25;9.83;;;7.00;;
4272;SDS011;63887;53.656;9.810;2022-10-16T13:35:58;9.83;;;6.73;;
4272;SDS011;63887;53.656;9.810;2022-10-16T13:38:25;6.77;;;6.47;;
4272;SDS011;63887;53.656;9.810;2022-10-16T13:40:53;7.00;;;6.50;;
4272;SDS011;63887;53.656;9.810;2022-10-16T13:43:23;7.07;;;6.47;;
4272;SDS011;63887;53.656;9.810;2022-10-16T13:45:57;6.53;;;6.17;;
4272;SDS011;63887;53.656;9.810;2022-10-16T13:48:27;7.57;;;6.23;;
4272;SDS011;63887;53.656;9.810;2022-10-16T13:51:00;9.07;;;6.37;;
4272;SDS011;63887;53.656;9.810;2022-10-16T13:53:29;6.80;;;6.40;;
4272;SDS011;63887;53.656;9.810;2022-10-16T13:55:57;11.27;;;5.80;;
4272;SDS011;63887;53.656;9.810;2022-10-16T13:58:26;5.73;;;5.40;;
4272;SDS011;63887;53.656;9.810;2022-10-16T14:00:53;6.40;;;5.43;;
4272;SDS011;63887;53.656;9.810;2022-10-16T14:03:22;8.33;;;6.90;;
4272;SDS011;63887;53.656;9.810;2022-10-16T14:05:51;7.60;;;6.37;;
4272;SDS011;63887;53.656;9.810;2022-10-16T14:08:19;6.40;;;5.90;;
4272;SDS011;63887;53.656;9.810;2022-10-16T14:10:47;6.73;;;6.13;;
4272;SDS011;63887;53.656;9.810;2022-10-16T14:13:16;6.90;;;6.23;;
4272;SDS011;63887;53.656;9.810;2022-10-16T14:15:47;10.53;;;7.00;;
4272;SDS011;63887;53.656;9.810;2022-10-16T14:18:18;7.27;;;6.67;;
4272;SDS011;63887;53.656;9.810;2022-10-16T14:20:46;9.80;;;7.20;;
4272;SDS011;63887;53.656;9.810;2022-10-16T14:23:22;6.40;;;6.00;;
4272;SDS011;63887;53.656;9.810;2022-10-16T14:25:58;5.63;;;5.23;;
4272;SDS011;63887;53.656;9.810;2022-10-16T14:28:31;9.83;;;6.07;;
4272;SDS011;63887;53.656;9.810;2022-10-16T14:31:00;6.47;;;6.07;;
4272;SDS011;63887;53.656;9.810;2022-10-16T14:33:31;6.40;;;5.90;;
4272;SDS011;63887;53.656;9.810;2022-10-16T14:36:02;15.63;;;6.50;;
4272;SDS011;63887;53.656;9.810;2022-10-16T14:38:31;6.50;;;5.63;;
4272;SDS011;63887;53.656;9.810;2022-10-16T14:40:58;7.20;;;6.53;;
4272;SDS011;63887;53.656;9.810;2022-10-16T14:43:28;8.27;;;7.67;;
4272;SDS011;63887;53.656;9.810;2022-10-16T14:46:00;7.50;;;6.87;;
4272;SDS011;63887;53.656;9.810;2022-10-16T14:48:28;5.90;;;5.60;;
4272;SDS011;63887;53.656;9.810;2022-10-16T14:50:55;8.50;;;7.17;;
4272;SDS011;63887;53.656;9.810;2022-10-16T14:53:22;13.73;;;6.50;;
4272;SDS011;63887;53.656;9.810;2022-10-16T14:55:48;7.07;;;6.57;;
4272;SDS011;63887;53.656;9.810;2022-10-16T14:58:15;6.73;;;6.13;;
4272;SDS011;63887;53.656;9.810;2022-10-16T15:00:43;8.30;;;6.10;;
4272;SDS011;63887;53.656;9.810;2022-10-16T15:03:11;11.07;;;6.00;;
4272;SDS011;63887;53.656;9.810;2022-10-16T15:05:37;6.87;;;6.30;;
4272;SDS011;63887;53.656;9.810;2022-10-16T15:08:04;7.40;;;6.80;;
4272;SDS011;63887;53.656;9.810;2022-10-16T15:10:31;9.60;;;8.40;;
4272;SDS011;63887;53.656;9.810;2022-10-16T15:13:01;7.20;;;6.63;;
4272;SDS011;63887;53.656;9.810;2022-10-16T15:15:32;11.93;;;7.10;;
4272;SDS011;63887;53.656;9.810;2022-10-16T15:18:00;7.50;;;7.00;;
4272;SDS011;63887;53.656;9.810;2022-10-16T15:20:29;9.17;;;7.90;;
4272;SDS011;63887;53.656;9.810;2022-10-16T15:22:58;13.87;;;8.10;;